createdAt,value
2023-02-05T00:01:32.814Z,96619.94
2023-02-05T00:04:00.161Z,96599.19
2023-02-05T00:06:27.184Z,96612.47
2023-02-05T00:08:54.518Z,96604.34
2023-02-05T00:11:21.379Z,96600.50
2023-02-05T00:13:48.151Z,96612.59
2023-02-05T00:16:18.227Z,96606.06
2023-02-05T00:18:45.828Z,96620.09
2023-02-05T00:21:13.893Z,96617.41
2023-02-05T00:23:41.204Z,96616.88
2023-02-05T00:26:08.700Z,96609.75
2023-02-05T00:28:36.902Z,96598.28
2023-02-05T00:31:16.370Z,96601.50
2023-02-05T00:33:43.956Z,96591.31
2023-02-05T00:36:12.761Z,96600.66
2023-02-05T00:38:42.721Z,96588.63
2023-02-05T00:41:11.066Z,96589.63
2023-02-05T00:43:39.130Z,96598.78
2023-02-05T00:46:06.814Z,96586.34
2023-02-05T00:48:33.608Z,96594.13
2023-02-05T00:51:00.520Z,96603.56
2023-02-05T00:53:27.612Z,96599.75
2023-02-05T00:55:55.612Z,96609.56
2023-02-05T00:58:22.448Z,96620.25
2023-02-05T01:00:50.408Z,96616.44
2023-02-05T01:03:17.939Z,96623.66
2023-02-05T01:05:45.347Z,96620.69
2023-02-05T01:08:13.035Z,96623.94
2023-02-05T01:10:45.692Z,96620.84
2023-02-05T01:13:12.732Z,96615.06
2023-02-05T01:15:39.971Z,96611.03
2023-02-05T01:18:06.961Z,96602.16
2023-02-05T01:20:37.109Z,96615.94
2023-02-05T01:23:04.102Z,96607.16
2023-02-05T01:25:31.121Z,96599.63
2023-02-05T01:27:58.115Z,96601.16
2023-02-05T01:30:25.672Z,96588.97
2023-02-05T01:32:52.910Z,96590.13
2023-02-05T01:35:19.733Z,96584.31
2023-02-05T01:37:47.038Z,96585.09
2023-02-05T01:40:18.061Z,96587.75
2023-02-05T01:42:45.000Z,96584.78
2023-02-05T01:45:25.353Z,96585.56
2023-02-05T01:48:00.843Z,96586.97
2023-02-05T01:50:43.323Z,96585.69
2023-02-05T01:53:16.129Z,96588.44
2023-02-05T01:55:50.037Z,96588.59
2023-02-05T01:58:16.875Z,96586.88
2023-02-05T02:00:43.951Z,96574.44
2023-02-05T02:03:14.241Z,96587.38
2023-02-05T02:05:41.176Z,96586.06
2023-02-05T02:08:12.148Z,96584.78
2023-02-05T02:10:43.448Z,96572.69
2023-02-05T02:13:12.212Z,96586.31
2023-02-05T02:15:40.446Z,96580.22
2023-02-05T02:18:26.966Z,96579.31
2023-02-05T02:20:56.657Z,96577.13
2023-02-05T02:23:44.606Z,96581.19
2023-02-05T02:26:20.545Z,96561.38
2023-02-05T02:28:52.362Z,96568.06
2023-02-05T02:31:28.875Z,96552.59
2023-02-05T02:34:08.756Z,96563.16
2023-02-05T02:36:47.916Z,96557.22
2023-02-05T02:39:29.174Z,96561.75
2023-02-05T02:42:04.668Z,96565.34
2023-02-05T02:44:46.700Z,96555.75
2023-02-05T02:47:20.533Z,96559.69
2023-02-05T02:49:57.793Z,96562.81
2023-02-05T02:52:27.283Z,96563.47
2023-02-05T02:54:57.843Z,96563.31
2023-02-05T02:57:29.248Z,96560.69
2023-02-05T03:00:01.419Z,96551.81
2023-02-05T03:02:33.297Z,96547.31
2023-02-05T03:05:07.586Z,96543.47
2023-02-05T03:07:40.129Z,96545.06
2023-02-05T03:10:12.296Z,96543.94
2023-02-05T03:12:39.191Z,96541.09
2023-02-05T03:15:07.872Z,96534.25
2023-02-05T03:17:35.877Z,96540.75
2023-02-05T03:20:26.666Z,96532.16
2023-02-05T03:22:53.616Z,96527.34
2023-02-05T03:25:23.240Z,96521.22
2023-02-05T03:27:55.399Z,96530.25
2023-02-05T03:30:30.923Z,96522.84
2023-02-05T03:33:27.860Z,96484.13
2023-02-05T03:36:30.224Z,96490.25
2023-02-05T03:39:22.593Z,96494.59
2023-02-05T03:42:08.058Z,96484.59
2023-02-05T03:45:13.782Z,96481.00
2023-02-05T03:47:59.701Z,96497.28
2023-02-05T03:50:32.902Z,96482.03
2023-02-05T03:53:20.032Z,96486.81
2023-02-05T03:56:08.786Z,96497.00
2023-02-05T03:58:40.586Z,96505.94
2023-02-05T04:01:11.174Z,96465.59
2023-02-05T04:03:39.548Z,96456.19
2023-02-05T04:06:08.447Z,96477.13
2023-02-05T04:08:35.976Z,96484.34
2023-02-05T04:11:03.184Z,96491.78
2023-02-05T04:13:30.185Z,96497.47
2023-02-05T04:15:57.667Z,96492.94
2023-02-05T04:18:24.570Z,96497.13
2023-02-05T04:20:51.336Z,96493.00
2023-02-05T04:23:22.463Z,96493.94
2023-02-05T04:25:54.440Z,96500.44
2023-02-05T04:28:25.951Z,96495.03
2023-02-05T04:30:53.723Z,96467.31
2023-02-05T04:33:20.592Z,96458.78
2023-02-05T04:35:47.632Z,96466.38
2023-02-05T04:38:15.205Z,96473.41
2023-02-05T04:40:42.426Z,96483.50
2023-02-05T04:43:09.228Z,96475.03
2023-02-05T04:45:36.232Z,96467.34
2023-02-05T04:48:03.517Z,96460.78
2023-02-05T04:50:30.223Z,96465.06
2023-02-05T04:52:57.261Z,96470.72
2023-02-05T04:55:24.221Z,96460.03
2023-02-05T04:57:52.654Z,96465.22
2023-02-05T05:00:20.159Z,96469.09
2023-02-05T05:02:46.931Z,96456.44
2023-02-05T05:05:13.784Z,96445.84
2023-02-05T05:07:41.220Z,96458.94
2023-02-05T05:10:08.873Z,96460.41
2023-02-05T05:12:36.562Z,96453.50
2023-02-05T05:15:06.219Z,96462.06
2023-02-05T05:17:34.549Z,96452.28
2023-02-05T05:20:01.750Z,96451.69
2023-02-05T05:22:28.412Z,96453.53
2023-02-05T05:24:55.106Z,96446.09
2023-02-05T05:27:23.199Z,96450.16
2023-02-05T05:29:50.809Z,96445.66
2023-02-05T05:32:17.652Z,96444.88
2023-02-05T05:34:44.416Z,96451.19
2023-02-05T05:37:11.553Z,96463.91
2023-02-05T05:39:56.793Z,96455.28
2023-02-05T05:42:42.523Z,96459.94
2023-02-05T05:45:09.512Z,96459.28
2023-02-05T05:47:36.267Z,96468.81
2023-02-05T05:50:03.267Z,96465.94
2023-02-05T05:52:32.404Z,96463.13
2023-02-05T05:54:59.434Z,96463.59
2023-02-05T05:57:26.740Z,96429.63
2023-02-05T05:59:53.489Z,96412.25
2023-02-05T06:02:20.413Z,96424.78
2023-02-05T06:04:47.311Z,96442.81
2023-02-05T06:07:14.131Z,96454.09
2023-02-05T06:09:40.914Z,96460.59
2023-02-05T06:12:07.656Z,96471.16
2023-02-05T06:14:34.401Z,96464.03
2023-02-05T06:17:01.106Z,96470.22
2023-02-05T06:19:28.364Z,96465.34
2023-02-05T06:21:55.036Z,96468.72
2023-02-05T06:24:21.763Z,96463.91
2023-02-05T06:26:48.751Z,96468.97
2023-02-05T06:29:15.618Z,96456.81
2023-02-05T06:31:42.406Z,96446.66
2023-02-05T06:34:09.153Z,96459.03
2023-02-05T06:36:35.861Z,96483.91
2023-02-05T06:39:02.573Z,96481.72
2023-02-05T06:41:29.287Z,96466.81
2023-02-05T06:43:56.103Z,96487.97
2023-02-05T06:46:22.815Z,96482.16
2023-02-05T06:48:49.790Z,96461.53
2023-02-05T06:51:16.553Z,96471.81
2023-02-05T06:53:43.845Z,96473.66
2023-02-05T06:56:10.610Z,96473.63
2023-02-05T06:58:37.359Z,96467.16
2023-02-05T07:01:04.378Z,96466.44
2023-02-05T07:03:31.235Z,96467.94
2023-02-05T07:06:03.763Z,96474.88
2023-02-05T07:08:30.774Z,96487.38
2023-02-05T07:10:57.809Z,96489.59
2023-02-05T07:13:24.514Z,96497.44
2023-02-05T07:15:51.304Z,96491.56
2023-02-05T07:18:18.064Z,96482.69
2023-02-05T07:20:44.812Z,96479.31
2023-02-05T07:23:11.513Z,96487.69
2023-02-05T07:25:38.270Z,96489.72
2023-02-05T07:28:06.904Z,96497.84
2023-02-05T07:30:35.076Z,96487.00
2023-02-05T07:33:03.561Z,96493.19
2023-02-05T07:35:32.179Z,96490.09
2023-02-05T07:37:59.403Z,96496.00
2023-02-05T07:40:26.199Z,96485.31
2023-02-05T07:42:52.940Z,96490.69
2023-02-05T07:45:19.677Z,96485.81
2023-02-05T07:47:50.093Z,96478.56
2023-02-05T07:50:17.680Z,96471.81
2023-02-05T07:52:44.705Z,96481.72
2023-02-05T07:55:11.497Z,96498.44
2023-02-05T07:57:38.230Z,96507.59
2023-02-05T08:00:05.609Z,96498.91
2023-02-05T08:02:38.992Z,96495.97
2023-02-05T08:05:06.756Z,96496.50
2023-02-05T08:07:33.686Z,96483.28
2023-02-05T08:10:00.351Z,96479.00
2023-02-05T08:12:27.287Z,96472.84
2023-02-05T08:14:54.007Z,96474.88
2023-02-05T08:17:20.718Z,96478.34
2023-02-05T08:19:47.465Z,96483.25
2023-02-05T08:22:14.818Z,96488.22
2023-02-05T08:24:41.574Z,96476.78
2023-02-05T08:27:08.337Z,96467.09
2023-02-05T08:29:35.120Z,96460.63
2023-02-05T08:32:02.026Z,96437.03
2023-02-05T08:34:29.440Z,96451.47
2023-02-05T08:36:58.226Z,96477.16
2023-02-05T08:39:26.123Z,96468.34
2023-02-05T08:41:53.461Z,96476.53
2023-02-05T08:44:20.820Z,96481.53
2023-02-05T08:46:50.153Z,96474.22
2023-02-05T08:49:17.673Z,96459.50
2023-02-05T08:51:44.979Z,96459.19
2023-02-05T08:54:13.648Z,96434.94
2023-02-05T08:56:42.073Z,96432.00
2023-02-05T08:59:10.147Z,96412.44
2023-02-05T09:01:41.034Z,96402.34
2023-02-05T09:04:08.210Z,96392.06
2023-02-05T09:06:35.396Z,96412.69
2023-02-05T09:09:02.201Z,96415.38
2023-02-05T09:11:30.570Z,96398.84
2023-02-05T09:13:58.010Z,96400.41
2023-02-05T09:16:26.351Z,96392.31
2023-02-05T09:18:57.600Z,96412.81
2023-02-05T09:21:25.448Z,96442.03
2023-02-05T09:23:53.726Z,96456.09
2023-02-05T09:26:21.422Z,96482.59
2023-02-05T09:28:48.195Z,96486.53
2023-02-05T09:31:19.489Z,96463.19
2023-02-05T09:33:46.826Z,96456.25
2023-02-05T09:36:15.210Z,96451.13
2023-02-05T09:38:42.266Z,96455.63
2023-02-05T09:41:15.140Z,96448.06
2023-02-05T09:44:09.312Z,96466.13
2023-02-05T09:47:03.659Z,96443.00
2023-02-05T09:49:38.040Z,96429.03
2023-02-05T09:52:17.807Z,96421.13
2023-02-05T09:54:50.821Z,96424.97
2023-02-05T09:57:27.601Z,96444.72
2023-02-05T09:59:54.432Z,96447.56
2023-02-05T10:02:24.898Z,96449.34
2023-02-05T10:04:54.815Z,96452.63
2023-02-05T10:07:30.316Z,96433.81
2023-02-05T10:10:27.550Z,96425.44
2023-02-05T10:13:21.642Z,96405.47
2023-02-05T10:16:06.863Z,96396.13
2023-02-05T10:18:57.684Z,96378.97
2023-02-05T10:22:02.072Z,96392.81
2023-02-05T10:24:40.836Z,96357.09
2023-02-05T10:27:10.359Z,96365.88
2023-02-05T10:29:52.885Z,96320.56
2023-02-05T10:32:52.792Z,96344.59
2023-02-05T10:35:30.744Z,96331.47
2023-02-05T10:37:58.198Z,96305.06
2023-02-05T10:40:29.718Z,96310.50
2023-02-05T10:43:21.763Z,96293.78
2023-02-05T10:45:49.935Z,96309.69
2023-02-05T10:48:39.704Z,96336.56
2023-02-05T10:51:24.796Z,96305.63
2023-02-05T10:53:52.236Z,96309.66
2023-02-05T10:56:20.060Z,96317.44
2023-02-05T10:59:00.983Z,96312.63
2023-02-05T11:01:38.927Z,96300.34
2023-02-05T11:04:12.484Z,96315.59
2023-02-05T11:06:46.058Z,96308.41
2023-02-05T11:09:33.930Z,96305.81
2023-02-05T11:12:06.327Z,96290.03
2023-02-05T11:14:35.408Z,96296.16
2023-02-05T11:17:08.470Z,96296.47
2023-02-05T11:19:35.379Z,96290.88
2023-02-05T11:22:05.139Z,96293.44
2023-02-05T11:24:36.302Z,96280.78
2023-02-05T11:27:30.121Z,96300.06
2023-02-05T11:30:17.832Z,96288.66
2023-02-05T11:32:46.520Z,96295.47
2023-02-05T11:35:25.154Z,96288.56
2023-02-05T11:38:07.504Z,96285.50
2023-02-05T11:40:35.808Z,96288.91
2023-02-05T11:43:07.633Z,96293.09
2023-02-05T11:45:39.243Z,96302.44
2023-02-05T11:48:22.553Z,96300.63
2023-02-05T11:50:49.540Z,96310.13
2023-02-05T11:53:19.722Z,96298.03
2023-02-05T11:55:54.805Z,96307.31
2023-02-05T11:58:37.006Z,96279.88
2023-02-05T12:01:29.099Z,96288.34
2023-02-05T12:04:01.771Z,96289.09
2023-02-05T12:06:41.699Z,96289.44
2023-02-05T12:09:18.011Z,96271.88
2023-02-05T12:12:09.947Z,96275.75
2023-02-05T12:14:51.887Z,96287.88
2023-02-05T12:17:24.513Z,96287.41
2023-02-05T12:20:09.625Z,96288.22
2023-02-05T12:22:51.368Z,96288.34
2023-02-05T12:25:30.563Z,96287.78
2023-02-05T12:28:19.105Z,96291.88
2023-02-05T12:31:02.222Z,96295.25
2023-02-05T12:33:51.210Z,96282.00
2023-02-05T12:36:39.345Z,96281.03
2023-02-05T12:39:28.049Z,96267.31
2023-02-05T12:42:36.219Z,96275.19
2023-02-05T12:45:13.225Z,96271.78
2023-02-05T12:47:58.601Z,96290.16
2023-02-05T12:50:56.583Z,96269.91
2023-02-05T12:53:54.632Z,96263.94
2023-02-05T12:56:52.751Z,96271.66
2023-02-05T12:59:38.504Z,96276.63
2023-02-05T13:02:17.780Z,96279.69
2023-02-05T13:05:10.935Z,96281.94
2023-02-05T13:07:42.549Z,96273.91
2023-02-05T13:10:24.528Z,96277.59
2023-02-05T13:13:02.775Z,96277.50
2023-02-05T13:15:38.257Z,96273.09
2023-02-05T13:18:23.904Z,96277.69
2023-02-05T13:21:16.657Z,96272.28
2023-02-05T13:24:03.603Z,96270.69
2023-02-05T13:27:02.494Z,96258.31
2023-02-05T13:29:35.181Z,96254.72
2023-02-05T13:32:15.254Z,96255.91
2023-02-05T13:34:43.171Z,96261.41
2023-02-05T13:37:36.840Z,96253.22
2023-02-05T13:40:16.218Z,96241.66
2023-02-05T13:42:46.337Z,96245.53
2023-02-05T13:45:31.353Z,96248.91
2023-02-05T13:47:58.007Z,96241.84
2023-02-05T13:50:33.985Z,96246.22
2023-02-05T13:53:06.199Z,96241.44
2023-02-05T13:55:59.097Z,96247.75
2023-02-05T13:58:36.460Z,96242.97
2023-02-05T14:01:18.612Z,96252.41
2023-02-05T14:03:59.561Z,96247.75
2023-02-05T14:06:38.157Z,96225.72
2023-02-05T14:09:23.172Z,96233.41
2023-02-05T14:11:59.132Z,96238.09
2023-02-05T14:14:32.780Z,96236.00
2023-02-05T14:17:02.866Z,96232.94
2023-02-05T14:19:32.786Z,96234.88
2023-02-05T14:22:03.077Z,96224.97
2023-02-05T14:24:40.776Z,96223.63
2023-02-05T14:27:26.542Z,96224.38
2023-02-05T14:29:54.097Z,96235.06
2023-02-05T14:32:29.918Z,96234.38
2023-02-05T14:35:33.199Z,96231.75
2023-02-05T14:38:21.020Z,96235.75
2023-02-05T14:41:11.975Z,96229.16
2023-02-05T14:43:40.544Z,96234.75
2023-02-05T14:46:21.567Z,96226.78
2023-02-05T14:48:48.808Z,96226.63
2023-02-05T14:51:25.237Z,96221.72
2023-02-05T14:53:59.422Z,96222.66
2023-02-05T14:56:34.285Z,96225.28
2023-02-05T14:59:07.384Z,96219.47
2023-02-05T15:01:34.090Z,96217.59
2023-02-05T15:04:05.300Z,96218.50
2023-02-05T15:06:40.639Z,96224.44
2023-02-05T15:09:20.830Z,96211.50
2023-02-05T15:12:25.908Z,96208.91
2023-02-05T15:14:55.896Z,96207.88
2023-02-05T15:17:36.943Z,96208.50
2023-02-05T15:20:19.247Z,96220.84
2023-02-05T15:23:26.334Z,96214.19
2023-02-05T15:26:02.170Z,96220.94
2023-02-05T15:28:32.003Z,96222.47
2023-02-05T15:31:10.090Z,96219.00
2023-02-05T15:33:48.503Z,96223.25
2023-02-05T15:36:25.659Z,96215.97
2023-02-05T15:39:24.823Z,96220.00
2023-02-05T15:41:55.916Z,96220.56
2023-02-05T15:44:29.530Z,96236.31
2023-02-05T15:46:59.175Z,96235.38
2023-02-05T15:49:32.600Z,96220.34
2023-02-05T15:52:00.636Z,96223.28
2023-02-05T15:54:28.407Z,96225.47
2023-02-05T15:56:56.611Z,96233.44
2023-02-05T15:59:30.456Z,96233.59
2023-02-05T16:02:15.248Z,96235.53
2023-02-05T16:04:41.977Z,96234.16
2023-02-05T16:07:24.147Z,96232.47
2023-02-05T16:09:54.233Z,96225.28
2023-02-05T16:12:20.995Z,96230.97
2023-02-05T16:14:58.595Z,96233.25
2023-02-05T16:17:31.953Z,96220.75
2023-02-05T16:20:29.635Z,96245.56
2023-02-05T16:22:59.514Z,96247.91
2023-02-05T16:25:33.559Z,96244.41
2023-02-05T16:28:05.484Z,96243.56
2023-02-05T16:30:43.885Z,96243.72
2023-02-05T16:33:39.576Z,96243.44
2023-02-05T16:36:14.624Z,96234.09
2023-02-05T16:38:41.803Z,96239.69
2023-02-05T16:41:22.404Z,96231.69
2023-02-05T16:43:51.810Z,96234.09
2023-02-05T16:46:32.018Z,96238.25
2023-02-05T16:49:22.607Z,96229.00
2023-02-05T16:51:49.416Z,96214.13
2023-02-05T16:54:19.266Z,96227.28
2023-02-05T16:56:51.570Z,96215.31
2023-02-05T16:59:23.688Z,96234.19
2023-02-05T17:01:52.158Z,96230.72
2023-02-05T17:04:34.640Z,96231.56
2023-02-05T17:07:03.560Z,96228.50
2023-02-05T17:09:31.927Z,96218.59
2023-02-05T17:12:21.726Z,96222.09
2023-02-05T17:14:58.547Z,96216.66
2023-02-05T17:17:27.241Z,96237.97
2023-02-05T17:20:15.866Z,96221.78
2023-02-05T17:23:03.645Z,96240.44
2023-02-05T17:25:37.608Z,96225.31
2023-02-05T17:28:06.930Z,96236.41
2023-02-05T17:30:35.115Z,96244.56
2023-02-05T17:33:06.207Z,96242.34
2023-02-05T17:35:33.964Z,96239.50
2023-02-05T17:38:01.117Z,96229.00
2023-02-05T17:40:28.220Z,96244.06
2023-02-05T17:42:55.369Z,96238.53
2023-02-05T17:45:25.210Z,96246.56
2023-02-05T17:47:52.455Z,96237.16
2023-02-05T17:50:19.866Z,96226.19
2023-02-05T17:52:46.745Z,96223.00
2023-02-05T17:55:16.478Z,96230.31
2023-02-05T17:57:44.249Z,96234.53
2023-02-05T18:00:20.624Z,96238.75
2023-02-05T18:02:47.576Z,96234.19
2023-02-05T18:05:14.430Z,96239.63
2023-02-05T18:07:53.747Z,96238.50
2023-02-05T18:10:27.110Z,96248.25
2023-02-05T18:12:55.457Z,96245.91
2023-02-05T18:15:23.882Z,96250.94
2023-02-05T18:17:50.829Z,96253.22
2023-02-05T18:20:20.937Z,96245.88
2023-02-05T18:22:49.219Z,96248.78
2023-02-05T18:25:16.790Z,96245.72
2023-02-05T18:27:43.689Z,96231.53
2023-02-05T18:30:11.509Z,96210.00
2023-02-05T18:32:38.308Z,96219.44
2023-02-05T18:35:05.572Z,96194.19
2023-02-05T18:37:32.387Z,96208.75
2023-02-05T18:39:59.153Z,96204.84
2023-02-05T18:42:26.999Z,96217.53
2023-02-05T18:44:53.847Z,96230.25
2023-02-05T18:47:21.042Z,96239.66
2023-02-05T18:49:47.804Z,96232.53
2023-02-05T18:52:14.800Z,96232.63
2023-02-05T18:54:41.935Z,96231.50
2023-02-05T18:57:08.799Z,96216.44
2023-02-05T18:59:37.876Z,96217.03
2023-02-05T19:02:05.979Z,96214.22
2023-02-05T19:04:33.417Z,96206.53
2023-02-05T19:07:00.243Z,96210.63
2023-02-05T19:09:28.949Z,96199.28
2023-02-05T19:11:56.012Z,96218.97
2023-02-05T19:14:24.230Z,96232.00
2023-02-05T19:16:52.146Z,96246.13
2023-02-05T19:19:22.802Z,96248.34
2023-02-05T19:22:02.251Z,96243.72
2023-02-05T19:24:29.212Z,96263.56
2023-02-05T19:26:58.963Z,96229.69
2023-02-05T19:29:26.299Z,96214.69
2023-02-05T19:31:53.849Z,96205.38
2023-02-05T19:34:22.212Z,96210.75
2023-02-05T19:36:49.784Z,96210.75
2023-02-05T19:39:16.766Z,96212.84
2023-02-05T19:41:48.381Z,96206.44
2023-02-05T19:44:15.424Z,96224.09
2023-02-05T19:46:48.730Z,96237.75
2023-02-05T19:49:17.831Z,96233.16
2023-02-05T19:51:50.211Z,96244.78
2023-02-05T19:54:17.090Z,96247.19
2023-02-05T19:56:44.240Z,96248.31
2023-02-05T19:59:12.710Z,96242.22
2023-02-05T20:01:40.954Z,96253.25
2023-02-05T20:04:12.365Z,96255.78
2023-02-05T20:06:41.480Z,96244.75
2023-02-05T20:09:13.570Z,96251.13
2023-02-05T20:11:42.511Z,96258.31
2023-02-05T20:14:10.688Z,96262.88
2023-02-05T20:16:40.232Z,96260.63
2023-02-05T20:19:10.164Z,96263.16
2023-02-05T20:21:37.941Z,96265.00
2023-02-05T20:24:05.358Z,96264.94
2023-02-05T20:26:32.119Z,96287.69
2023-02-05T20:29:18.035Z,96291.63
2023-02-05T20:31:50.576Z,96285.44
2023-02-05T20:34:26.066Z,96269.56
2023-02-05T20:36:55.873Z,96262.56
2023-02-05T20:39:24.569Z,96237.88
2023-02-05T20:41:52.378Z,96256.91
2023-02-05T20:44:19.716Z,96260.63
2023-02-05T20:46:47.097Z,96261.81
2023-02-05T20:49:14.562Z,96284.97
2023-02-05T20:51:43.032Z,96284.81
2023-02-05T20:54:10.335Z,96285.16
2023-02-05T20:56:38.468Z,96298.75
2023-02-05T20:59:07.299Z,96298.09
2023-02-05T21:01:39.750Z,96309.69
2023-02-05T21:04:08.888Z,96314.84
2023-02-05T21:06:38.232Z,96317.06
2023-02-05T21:09:07.233Z,96333.34
2023-02-05T21:11:34.759Z,96335.38
2023-02-05T21:14:03.525Z,96328.78
2023-02-05T21:16:30.824Z,96318.22
2023-02-05T21:18:58.092Z,96326.75
2023-02-05T21:21:27.947Z,96322.75
2023-02-05T21:23:56.731Z,96301.50
2023-02-05T21:26:29.912Z,96313.47
2023-02-05T21:29:02.578Z,96308.25
2023-02-05T21:31:34.390Z,96320.59
2023-02-05T21:34:07.132Z,96349.78
2023-02-05T21:36:34.240Z,96361.50
2023-02-05T21:39:02.617Z,96378.09
2023-02-05T21:41:29.638Z,96382.50
2023-02-05T21:43:59.494Z,96377.63
2023-02-05T21:46:29.587Z,96387.13
2023-02-05T21:48:58.453Z,96381.66
2023-02-05T21:51:27.960Z,96391.59
2023-02-05T21:53:58.852Z,96377.94
2023-02-05T21:56:29.392Z,96382.34
2023-02-05T21:58:56.437Z,96380.59
2023-02-05T22:01:25.761Z,96380.09
2023-02-05T22:03:55.260Z,96348.84
2023-02-05T22:06:23.960Z,96377.00
2023-02-05T22:08:51.542Z,96394.78
2023-02-05T22:11:20.291Z,96385.69
2023-02-05T22:13:49.061Z,96391.56
2023-02-05T22:16:22.172Z,96402.28
2023-02-05T22:18:49.690Z,96406.31
2023-02-05T22:21:27.138Z,96390.19
2023-02-05T22:23:55.951Z,96401.13
2023-02-05T22:26:25.406Z,96419.66
2023-02-05T22:28:52.873Z,96428.50
2023-02-05T22:31:21.499Z,96431.03
2023-02-05T22:33:49.923Z,96425.47
2023-02-05T22:36:19.314Z,96413.03
2023-02-05T22:38:46.567Z,96422.63
2023-02-05T22:41:24.737Z,96431.19
2023-02-05T22:43:52.042Z,96429.66
2023-02-05T22:46:21.824Z,96433.22
2023-02-05T22:48:50.163Z,96436.84
2023-02-05T22:51:28.567Z,96442.09
2023-02-05T22:53:56.170Z,96454.19
2023-02-05T22:56:23.721Z,96443.53
2023-02-05T22:58:51.822Z,96438.69
2023-02-05T23:01:21.592Z,96436.94
2023-02-05T23:03:50.778Z,96440.53
2023-02-05T23:06:25.301Z,96450.16
2023-02-05T23:09:00.300Z,96449.06
2023-02-05T23:11:29.620Z,96442.69
2023-02-05T23:13:57.961Z,96437.56
2023-02-05T23:16:27.499Z,96436.56
2023-02-05T23:18:58.628Z,96427.50
2023-02-05T23:21:28.434Z,96422.00
2023-02-05T23:23:55.359Z,96425.44
2023-02-05T23:26:25.157Z,96435.66
2023-02-05T23:28:53.232Z,96438.94
2023-02-05T23:31:22.183Z,96444.09
2023-02-05T23:33:49.302Z,96460.69
2023-02-05T23:36:16.099Z,96461.47
2023-02-05T23:38:42.811Z,96464.13
2023-02-05T23:41:09.717Z,96452.03
2023-02-05T23:43:37.365Z,96456.91
2023-02-05T23:46:07.139Z,96452.06
2023-02-05T23:48:34.099Z,96454.91
2023-02-05T23:51:01.443Z,96469.13
2023-02-05T23:53:28.236Z,96483.13
2023-02-05T23:55:55.062Z,96477.28
2023-02-05T23:58:26.068Z,96490.13
